createdAt,value
2023-05-04T00:02:02.370Z,6.83
2023-05-04T00:04:28.840Z,6.96
2023-05-04T00:06:55.235Z,6.85
2023-05-04T00:09:21.622Z,6.90
2023-05-04T00:11:47.984Z,6.99
2023-05-04T00:14:14.484Z,6.95
2023-05-04T00:16:41.063Z,6.87
2023-05-04T00:19:07.589Z,6.75
2023-05-04T00:21:34.219Z,6.70
2023-05-04T00:24:02.345Z,6.72
2023-05-04T00:26:28.832Z,6.75
2023-05-04T00:28:55.208Z,6.72
2023-05-04T00:31:21.977Z,6.76
2023-05-04T00:33:48.362Z,6.74
2023-05-04T00:36:14.825Z,6.58
2023-05-04T00:38:52.097Z,6.65
2023-05-04T00:41:20.138Z,6.55
2023-05-04T00:43:47.320Z,6.59
2023-05-04T00:46:14.448Z,6.64
2023-05-04T00:48:42.019Z,6.64
2023-05-04T00:51:10.772Z,6.54
2023-05-04T00:53:37.287Z,6.58
2023-05-04T00:56:04.319Z,6.41
2023-05-04T00:58:32.344Z,6.40
2023-05-04T01:00:59.088Z,6.43
2023-05-04T01:03:27.549Z,6.32
2023-05-04T01:06:34.159Z,6.32
2023-05-04T01:09:31.408Z,6.35
2023-05-04T01:12:08.306Z,6.37
2023-05-04T01:14:36.315Z,6.35
2023-05-04T01:17:05.190Z,6.26
2023-05-04T01:19:31.894Z,6.30
2023-05-04T01:21:58.455Z,6.52
2023-05-04T01:24:26.658Z,6.35
2023-05-04T01:27:04.951Z,6.40
2023-05-04T01:29:41.752Z,6.37
2023-05-04T01:32:08.380Z,6.36
2023-05-04T01:34:37.566Z,6.42
2023-05-04T01:37:04.017Z,6.20
2023-05-04T01:39:30.695Z,6.19
2023-05-04T01:41:57.222Z,6.22
2023-05-04T01:44:23.639Z,6.22
2023-05-04T01:46:50.087Z,6.40
2023-05-04T01:49:16.484Z,6.42
2023-05-04T01:51:42.875Z,6.36
2023-05-04T01:54:09.318Z,6.16
2023-05-04T01:56:35.702Z,6.28
2023-05-04T01:59:02.076Z,6.23
2023-05-04T02:01:28.532Z,6.28
2023-05-04T02:03:55.102Z,6.25
2023-05-04T02:06:21.567Z,6.34
2023-05-04T02:08:48.164Z,6.37
2023-05-04T02:11:17.189Z,6.20
2023-05-04T02:13:43.585Z,6.33
2023-05-04T02:16:10.073Z,6.55
2023-05-04T02:18:36.459Z,6.53
2023-05-04T02:21:02.987Z,6.49
2023-05-04T02:23:29.742Z,6.40
2023-05-04T02:25:56.466Z,6.51
2023-05-04T02:28:22.842Z,6.60
2023-05-04T02:30:49.231Z,6.55
2023-05-04T02:33:15.627Z,6.51
2023-05-04T02:35:42.071Z,6.47
2023-05-04T02:38:08.607Z,6.49
2023-05-04T02:40:34.989Z,6.56
2023-05-04T02:43:01.495Z,6.58
2023-05-04T02:45:27.929Z,6.57
2023-05-04T02:47:54.401Z,6.50
2023-05-04T02:50:20.854Z,6.51
2023-05-04T02:52:47.239Z,6.45
2023-05-04T02:55:13.635Z,6.41
2023-05-04T02:57:40.137Z,6.45
2023-05-04T03:00:07.370Z,6.58
2023-05-04T03:02:33.956Z,6.43
2023-05-04T03:05:00.444Z,6.49
2023-05-04T03:07:27.958Z,6.49
2023-05-04T03:09:54.438Z,6.48
2023-05-04T03:12:20.866Z,6.48
2023-05-04T03:14:47.255Z,6.56
2023-05-04T03:17:13.653Z,6.49
2023-05-04T03:19:40.050Z,6.55
2023-05-04T03:22:06.479Z,6.64
2023-05-04T03:24:33.075Z,6.61
2023-05-04T03:26:59.548Z,6.61
2023-05-04T03:29:26.344Z,6.48
2023-05-04T03:31:52.772Z,6.57
2023-05-04T03:34:21.466Z,6.56
2023-05-04T03:36:48.716Z,6.66
2023-05-04T03:39:18.947Z,6.71
2023-05-04T03:41:45.508Z,6.53
2023-05-04T03:44:11.984Z,6.73
2023-05-04T03:46:38.535Z,6.60
2023-05-04T03:49:05.040Z,6.61
2023-05-04T03:51:31.483Z,6.61
2023-05-04T03:53:57.925Z,6.73
2023-05-04T03:56:24.276Z,6.76
2023-05-04T03:58:50.639Z,6.75
2023-05-04T04:01:17.011Z,6.78
2023-05-04T04:03:43.442Z,6.72
2023-05-04T04:06:10.604Z,6.80
2023-05-04T04:08:37.129Z,6.80
2023-05-04T04:11:03.519Z,6.83
2023-05-04T04:13:30.135Z,6.68
2023-05-04T04:15:56.621Z,6.85
2023-05-04T04:18:24.293Z,6.87
2023-05-04T04:20:51.079Z,6.94
2023-05-04T04:23:20.306Z,7.05
2023-05-04T04:25:46.745Z,7.08
2023-05-04T04:28:14.508Z,7.06
2023-05-04T04:30:41.580Z,7.07
2023-05-04T04:33:08.198Z,7.00
2023-05-04T04:35:34.792Z,7.05
2023-05-04T04:38:03.763Z,7.21
2023-05-04T04:40:30.541Z,7.18
2023-05-04T04:42:57.062Z,7.25
2023-05-04T04:45:23.642Z,7.18
2023-05-04T04:47:50.197Z,7.24
2023-05-04T04:50:16.707Z,7.37
2023-05-04T04:52:43.091Z,7.28
2023-05-04T04:55:09.708Z,7.26
2023-05-04T04:57:36.248Z,7.45
2023-05-04T05:00:05.686Z,7.50
2023-05-04T05:02:33.584Z,7.40
2023-05-04T05:05:00.208Z,7.56
2023-05-04T05:07:27.158Z,7.58
2023-05-04T05:09:53.514Z,7.58
2023-05-04T05:12:19.957Z,7.73
2023-05-04T05:14:47.246Z,7.85
2023-05-04T05:17:13.816Z,7.78
2023-05-04T05:19:42.199Z,7.69
2023-05-04T05:22:09.307Z,8.17
2023-05-04T05:24:35.779Z,8.27
2023-05-04T05:27:02.450Z,8.35
2023-05-04T05:29:28.942Z,8.30
2023-05-04T05:31:55.382Z,8.17
2023-05-04T05:34:21.783Z,8.39
2023-05-04T05:36:49.036Z,8.83
2023-05-04T05:39:15.871Z,8.65
2023-05-04T05:41:42.307Z,8.75
2023-05-04T05:44:08.843Z,8.50
2023-05-04T05:46:35.900Z,8.70
2023-05-04T05:49:02.394Z,8.79
2023-05-04T05:51:28.777Z,9.28
2023-05-04T05:53:55.450Z,9.24
2023-05-04T05:56:22.168Z,9.22
2023-05-04T05:58:51.128Z,9.28
2023-05-04T06:01:17.512Z,9.35
2023-05-04T06:03:44.100Z,9.49
2023-05-04T06:06:10.678Z,9.94
2023-05-04T06:08:37.343Z,10.22
2023-05-04T06:11:03.830Z,9.99
2023-05-04T06:13:30.204Z,10.40
2023-05-04T06:15:56.692Z,10.44
2023-05-04T06:18:23.145Z,10.84
2023-05-04T06:20:49.573Z,10.63
2023-05-04T06:23:16.482Z,10.71
2023-05-04T06:25:42.890Z,10.73
2023-05-04T06:28:09.295Z,10.87
2023-05-04T06:30:36.576Z,11.08
2023-05-04T06:33:04.137Z,11.09
2023-05-04T06:35:31.143Z,11.77
2023-05-04T06:37:57.565Z,11.61
2023-05-04T06:40:25.268Z,12.00
2023-05-04T06:42:51.839Z,12.23
2023-05-04T06:45:18.533Z,12.23
2023-05-04T06:47:44.925Z,12.33
2023-05-04T06:50:11.943Z,12.56
2023-05-04T06:52:39.992Z,12.23
2023-05-04T06:55:07.394Z,12.75
2023-05-04T06:57:34.243Z,12.46
2023-05-04T07:00:00.691Z,11.89
2023-05-04T07:02:27.161Z,12.51
2023-05-04T07:04:54.561Z,13.05
2023-05-04T07:07:20.977Z,13.40
2023-05-04T07:09:48.296Z,12.51
2023-05-04T07:12:14.766Z,13.28
2023-05-04T07:14:41.227Z,13.29
2023-05-04T07:17:10.037Z,13.52
2023-05-04T07:19:36.942Z,13.73
2023-05-04T07:22:03.485Z,13.84
2023-05-04T07:24:30.810Z,14.07
2023-05-04T07:26:57.197Z,14.14
2023-05-04T07:29:23.648Z,14.15
2023-05-04T07:31:50.089Z,14.53
2023-05-04T07:34:16.542Z,13.81
2023-05-04T07:36:43.658Z,13.55
2023-05-04T07:39:10.279Z,13.98
2023-05-04T07:41:37.031Z,14.56
2023-05-04T07:44:05.659Z,14.26
2023-05-04T07:46:32.229Z,14.03
2023-05-04T07:48:58.730Z,14.23
2023-05-04T07:51:25.334Z,14.59
2023-05-04T07:53:51.876Z,14.50
2023-05-04T07:56:18.299Z,14.35
2023-05-04T07:58:44.802Z,14.73
2023-05-04T08:01:11.295Z,15.26
2023-05-04T08:03:37.678Z,15.49
2023-05-04T08:06:04.083Z,15.48
2023-05-04T08:08:30.676Z,15.48
2023-05-04T08:11:07.944Z,15.72
2023-05-04T08:13:39.525Z,15.91
2023-05-04T08:16:06.863Z,16.05
2023-05-04T08:18:33.230Z,16.10
2023-05-04T08:20:59.669Z,16.41
2023-05-04T08:23:26.081Z,15.94
2023-05-04T08:25:52.439Z,15.53
2023-05-04T08:28:18.865Z,15.87
2023-05-04T08:30:45.300Z,16.10
2023-05-04T08:33:11.797Z,15.48
2023-05-04T08:35:39.539Z,15.73
2023-05-04T08:38:05.940Z,15.43
2023-05-04T08:40:33.654Z,15.98
2023-05-04T08:43:00.143Z,16.17
2023-05-04T08:45:27.354Z,16.58
2023-05-04T08:47:53.922Z,17.19
2023-05-04T08:50:20.578Z,17.23
2023-05-04T08:52:47.572Z,15.90
2023-05-04T08:55:16.182Z,16.82
2023-05-04T08:57:43.862Z,16.68
2023-05-04T09:00:12.108Z,17.02
2023-05-04T09:02:39.376Z,17.02
2023-05-04T09:05:07.980Z,16.37
2023-05-04T09:07:34.741Z,16.59
2023-05-04T09:10:01.380Z,16.39
2023-05-04T09:12:27.936Z,17.26
2023-05-04T09:14:54.355Z,17.93
2023-05-04T09:17:29.188Z,17.92
2023-05-04T09:20:02.813Z,18.68
2023-05-04T09:22:30.466Z,18.49
2023-05-04T09:25:13.112Z,18.59
2023-05-04T09:27:42.635Z,18.70
2023-05-04T09:30:09.452Z,18.26
2023-05-04T09:32:46.661Z,18.59
2023-05-04T09:35:25.282Z,19.04
2023-05-04T09:37:58.752Z,18.34
2023-05-04T09:40:33.097Z,18.19
2023-05-04T09:43:01.034Z,18.60
2023-05-04T09:45:38.119Z,18.18
2023-05-04T09:48:21.202Z,17.72
2023-05-04T09:51:00.582Z,19.26
2023-05-04T09:53:31.604Z,19.64
2023-05-04T09:56:10.963Z,20.57
2023-05-04T09:58:38.084Z,20.51
2023-05-04T10:01:05.001Z,20.51
2023-05-04T10:03:32.253Z,19.32
2023-05-04T10:06:00.408Z,19.01
2023-05-04T10:08:30.126Z,18.99
2023-05-04T10:10:57.093Z,20.56
2023-05-04T10:13:24.598Z,21.03
2023-05-04T10:16:14.107Z,19.81
2023-05-04T10:18:46.565Z,19.85
2023-05-04T10:21:25.602Z,19.75
2023-05-04T10:24:15.679Z,19.98
2023-05-04T10:27:03.157Z,20.91
2023-05-04T10:29:32.982Z,20.81
2023-05-04T10:31:59.949Z,20.71
2023-05-04T10:34:27.646Z,19.23
2023-05-04T10:36:54.343Z,19.43
2023-05-04T10:39:21.961Z,19.43
2023-05-04T10:42:05.146Z,19.16
2023-05-04T10:44:33.693Z,19.58
2023-05-04T10:47:03.146Z,20.19
2023-05-04T10:49:29.921Z,20.04
2023-05-04T10:52:09.885Z,20.37
2023-05-04T10:54:37.661Z,21.01
2023-05-04T10:57:06.141Z,21.00
2023-05-04T10:59:35.418Z,20.45
2023-05-04T11:02:05.010Z,20.67
2023-05-04T11:04:32.297Z,20.98
2023-05-04T11:07:06.695Z,20.62
2023-05-04T11:09:38.304Z,20.47
2023-05-04T11:12:05.336Z,20.90
2023-05-04T11:14:31.869Z,21.32
2023-05-04T11:17:20.270Z,21.81
2023-05-04T11:19:53.631Z,21.62
2023-05-04T11:22:20.457Z,21.35
2023-05-04T11:24:48.581Z,22.13
2023-05-04T11:27:30.018Z,20.90
2023-05-04T11:30:06.949Z,22.97
2023-05-04T11:32:34.835Z,21.81
2023-05-04T11:35:02.364Z,22.57
2023-05-04T11:37:29.797Z,21.77
2023-05-04T11:39:56.959Z,22.16
2023-05-04T11:42:24.289Z,23.30
2023-05-04T11:44:51.852Z,23.09
2023-05-04T11:47:18.522Z,23.33
2023-05-04T11:49:45.580Z,22.86
2023-05-04T11:52:12.220Z,23.04
2023-05-04T11:54:38.641Z,23.25
2023-05-04T11:57:05.641Z,22.40
2023-05-04T11:59:32.071Z,22.10
2023-05-04T12:01:58.558Z,22.89
2023-05-04T12:04:31.039Z,23.22
2023-05-04T12:06:59.033Z,22.71
2023-05-04T12:09:27.497Z,22.35
2023-05-04T12:11:56.216Z,22.78
2023-05-04T12:14:24.412Z,22.53
2023-05-04T12:16:57.665Z,22.11
2023-05-04T12:19:24.092Z,21.85
2023-05-04T12:21:53.277Z,21.82
2023-05-04T12:24:21.987Z,21.82
2023-05-04T12:26:48.451Z,22.08
2023-05-04T12:29:15.070Z,23.15
2023-05-04T12:31:41.578Z,23.21
2023-05-04T12:34:08.037Z,22.75
2023-05-04T12:36:34.910Z,22.81
2023-05-04T12:39:01.844Z,22.72
2023-05-04T12:41:28.249Z,23.15
2023-05-04T12:43:54.613Z,22.43
2023-05-04T12:46:22.551Z,21.96
2023-05-04T12:48:49.232Z,23.34
2023-05-04T12:51:15.607Z,23.33
2023-05-04T12:53:42.357Z,23.72
2023-05-04T12:56:08.829Z,24.11
2023-05-04T12:58:35.198Z,24.18
2023-05-04T13:01:01.789Z,23.74
2023-05-04T13:03:28.377Z,22.84
2023-05-04T13:05:54.892Z,23.43
2023-05-04T13:08:21.317Z,24.82
2023-05-04T13:10:48.028Z,24.06
2023-05-04T13:13:17.156Z,23.12
2023-05-04T13:15:44.532Z,23.23
2023-05-04T13:18:11.021Z,23.81
2023-05-04T13:20:38.796Z,23.42
2023-05-04T13:23:05.227Z,23.80
2023-05-04T13:25:31.612Z,24.06
2023-05-04T13:27:58.786Z,23.09
2023-05-04T13:30:25.554Z,23.61
2023-05-04T13:32:51.986Z,22.99
2023-05-04T13:35:18.405Z,22.90
2023-05-04T13:37:44.793Z,23.30
2023-05-04T13:40:12.096Z,23.54
2023-05-04T13:42:38.632Z,23.65
2023-05-04T13:45:06.480Z,23.30
2023-05-04T13:47:34.340Z,23.85
2023-05-04T13:50:01.957Z,24.14
2023-05-04T13:52:28.547Z,23.75
2023-05-04T13:54:54.930Z,23.81
2023-05-04T13:57:21.353Z,23.54
2023-05-04T14:00:02.417Z,23.77
2023-05-04T14:02:33.113Z,24.14
2023-05-04T14:04:59.611Z,23.06
2023-05-04T14:07:26.006Z,23.06
2023-05-04T14:09:52.492Z,22.86
2023-05-04T14:12:21.441Z,23.53
2023-05-04T14:14:47.798Z,24.04
2023-05-04T14:17:14.208Z,24.37
2023-05-04T14:19:40.646Z,23.31
2023-05-04T14:22:07.097Z,22.73
2023-05-04T14:24:33.642Z,23.25
2023-05-04T14:27:00.058Z,22.46
2023-05-04T14:29:27.168Z,22.75
2023-05-04T14:31:53.988Z,22.39
2023-05-04T14:34:20.445Z,22.20
2023-05-04T14:36:46.817Z,22.48
2023-05-04T14:39:13.203Z,22.39
2023-05-04T14:41:39.681Z,22.30
2023-05-04T14:44:06.083Z,22.03
2023-05-04T14:46:32.624Z,22.78
2023-05-04T14:48:59.152Z,22.89
2023-05-04T14:51:26.397Z,22.48
2023-05-04T14:53:53.609Z,22.63
2023-05-04T14:56:20.655Z,22.65
2023-05-04T14:58:47.129Z,22.26
2023-05-04T15:01:13.722Z,22.11
2023-05-04T15:03:40.259Z,22.55
2023-05-04T15:06:08.692Z,22.82
2023-05-04T15:08:35.120Z,22.94
2023-05-04T15:11:01.586Z,22.56
2023-05-04T15:13:27.975Z,22.45
2023-05-04T15:15:54.373Z,22.72
2023-05-04T15:18:21.288Z,22.02
2023-05-04T15:20:47.733Z,22.16
2023-05-04T15:23:14.169Z,22.55
2023-05-04T15:25:41.101Z,22.52
2023-05-04T15:28:10.605Z,22.66
2023-05-04T15:30:37.924Z,23.15
2023-05-04T15:33:05.438Z,22.60
2023-05-04T15:35:33.133Z,22.48
2023-05-04T15:38:00.528Z,22.53
2023-05-04T15:40:27.487Z,22.38
2023-05-04T15:42:53.926Z,22.12
2023-05-04T15:45:21.089Z,22.14
2023-05-04T15:47:47.660Z,22.32
2023-05-04T15:50:14.155Z,22.86
2023-05-04T15:52:40.923Z,23.05
2023-05-04T15:55:23.385Z,22.21
2023-05-04T15:57:51.653Z,22.75
2023-05-04T16:00:18.534Z,22.28
2023-05-04T16:02:45.019Z,22.17
2023-05-04T16:05:11.561Z,22.05
2023-05-04T16:07:37.973Z,21.70
2023-05-04T16:10:05.261Z,21.61
2023-05-04T16:12:31.836Z,21.54
2023-05-04T16:14:58.287Z,21.54
2023-05-04T16:17:24.759Z,21.38
2023-05-04T16:19:51.172Z,21.27
2023-05-04T16:22:17.614Z,21.26
2023-05-04T16:24:43.970Z,20.60
2023-05-04T16:27:10.416Z,20.79
2023-05-04T16:29:36.847Z,20.90
2023-05-04T16:32:03.322Z,20.84
2023-05-04T16:34:29.729Z,20.92
2023-05-04T16:36:56.140Z,20.41
2023-05-04T16:39:26.850Z,20.55
2023-05-04T16:41:53.211Z,20.53
2023-05-04T16:44:19.636Z,20.47
2023-05-04T16:46:46.270Z,20.39
2023-05-04T16:49:14.619Z,20.43
2023-05-04T16:51:41.491Z,20.38
2023-05-04T16:54:07.862Z,20.50
2023-05-04T16:56:34.316Z,20.19
2023-05-04T16:59:00.987Z,20.56
2023-05-04T17:01:27.450Z,20.29
2023-05-04T17:03:54.110Z,20.14
2023-05-04T17:06:20.786Z,20.18
2023-05-04T17:08:47.165Z,20.19
2023-05-04T17:11:13.555Z,20.03
2023-05-04T17:13:39.977Z,19.78
2023-05-04T17:16:06.840Z,20.00
2023-05-04T17:18:33.368Z,19.88
2023-05-04T17:20:59.773Z,19.78
2023-05-04T17:23:26.203Z,19.47
2023-05-04T17:25:52.585Z,19.40
2023-05-04T17:28:18.971Z,19.48
2023-05-04T17:30:45.402Z,19.60
2023-05-04T17:33:11.882Z,19.44
2023-05-04T17:35:38.384Z,19.51
2023-05-04T17:38:04.894Z,19.35
2023-05-04T17:40:31.289Z,19.22
2023-05-04T17:42:57.783Z,19.10
2023-05-04T17:45:24.200Z,19.08
2023-05-04T17:47:51.626Z,19.05
2023-05-04T17:50:18.200Z,18.93
2023-05-04T17:52:44.628Z,18.97
2023-05-04T17:55:11.106Z,18.79
2023-05-04T17:57:37.512Z,18.73
2023-05-04T18:00:07.255Z,18.44
2023-05-04T18:02:34.241Z,18.56
2023-05-04T18:05:00.783Z,18.45
2023-05-04T18:07:27.156Z,18.41
2023-05-04T18:09:53.556Z,18.50
2023-05-04T18:12:20.012Z,18.45
2023-05-04T18:14:46.390Z,18.46
2023-05-04T18:17:12.859Z,18.48
2023-05-04T18:19:39.437Z,18.45
2023-05-04T18:22:05.830Z,18.30
2023-05-04T18:24:34.002Z,18.27
2023-05-04T18:27:01.838Z,18.02
2023-05-04T18:29:28.435Z,17.73
2023-05-04T18:31:54.845Z,17.81
2023-05-04T18:34:21.438Z,17.78
2023-05-04T18:36:49.270Z,17.69
2023-05-04T18:39:15.862Z,17.66
2023-05-04T18:41:42.264Z,17.60
2023-05-04T18:44:09.949Z,17.54
2023-05-04T18:46:36.391Z,17.67
2023-05-04T18:49:02.773Z,17.42
2023-05-04T18:51:29.210Z,17.44
2023-05-04T18:53:55.573Z,17.48
2023-05-04T18:56:22.049Z,17.22
2023-05-04T18:58:48.728Z,17.22
2023-05-04T19:01:15.196Z,17.30
2023-05-04T19:03:41.770Z,17.10
2023-05-04T19:06:08.206Z,16.94
2023-05-04T19:08:34.568Z,16.97
2023-05-04T19:11:03.077Z,16.80
2023-05-04T19:13:29.884Z,16.76
2023-05-04T19:15:56.403Z,16.71
2023-05-04T19:18:23.336Z,16.73
2023-05-04T19:20:49.764Z,16.49
2023-05-04T19:23:16.330Z,16.53
2023-05-04T19:25:43.116Z,16.48
2023-05-04T19:28:09.684Z,16.41
2023-05-04T19:30:37.190Z,16.30
2023-05-04T19:33:04.819Z,16.29
2023-05-04T19:35:31.342Z,16.17
2023-05-04T19:37:59.236Z,16.06
2023-05-04T19:40:25.681Z,15.94
2023-05-04T19:42:52.083Z,15.95
2023-05-04T19:45:18.663Z,15.93
2023-05-04T19:47:45.499Z,15.91
2023-05-04T19:50:13.934Z,15.88
2023-05-04T19:52:40.349Z,15.79
2023-05-04T19:55:07.369Z,15.78
2023-05-04T19:57:33.837Z,15.73
2023-05-04T20:00:00.750Z,15.61
2023-05-04T20:02:27.991Z,15.56
2023-05-04T20:04:54.644Z,15.56
2023-05-04T20:07:21.169Z,15.48
2023-05-04T20:09:47.551Z,15.49
2023-05-04T20:12:13.901Z,15.42
2023-05-04T20:14:41.201Z,15.46
2023-05-04T20:17:07.709Z,15.42
2023-05-04T20:19:34.256Z,15.30
2023-05-04T20:22:00.645Z,15.40
2023-05-04T20:24:27.062Z,15.33
2023-05-04T20:26:53.852Z,15.33
2023-05-04T20:29:20.961Z,15.26
2023-05-04T20:31:47.453Z,15.27
2023-05-04T20:34:13.840Z,15.35
2023-05-04T20:36:40.216Z,15.15
2023-05-04T20:39:06.753Z,15.13
2023-05-04T20:41:33.591Z,15.05
2023-05-04T20:44:00.142Z,15.08
2023-05-04T20:46:26.706Z,15.11
2023-05-04T20:48:53.323Z,15.08
2023-05-04T20:51:19.701Z,14.98
2023-05-04T20:53:46.249Z,15.05
2023-05-04T20:56:14.604Z,14.97
2023-05-04T20:58:41.165Z,14.92
2023-05-04T21:01:07.643Z,14.99
2023-05-04T21:03:34.805Z,15.09
2023-05-04T21:06:02.019Z,15.02
2023-05-04T21:08:28.426Z,14.87
2023-05-04T21:10:54.836Z,14.84
2023-05-04T21:13:21.202Z,14.87
2023-05-04T21:15:47.763Z,14.89
2023-05-04T21:18:14.238Z,14.78
2023-05-04T21:20:41.386Z,14.78
2023-05-04T21:23:07.820Z,14.78
2023-05-04T21:25:34.673Z,14.73
2023-05-04T21:28:01.081Z,14.79
2023-05-04T21:30:27.619Z,14.71
2023-05-04T21:32:54.076Z,14.61
2023-05-04T21:35:21.960Z,14.62
2023-05-04T21:37:48.725Z,14.63
2023-05-04T21:40:15.199Z,14.51
2023-05-04T21:42:41.616Z,14.45
2023-05-04T21:45:08.440Z,14.56
2023-05-04T21:47:36.196Z,14.22
2023-05-04T21:50:03.855Z,14.28
2023-05-04T21:52:30.338Z,14.34
2023-05-04T21:54:56.824Z,14.49
2023-05-04T21:57:25.229Z,14.42
2023-05-04T21:59:51.633Z,14.33
2023-05-04T22:02:18.136Z,14.03
2023-05-04T22:04:44.652Z,14.16
2023-05-04T22:07:11.071Z,14.10
2023-05-04T22:09:37.471Z,14.14
2023-05-04T22:12:04.025Z,13.99
2023-05-04T22:14:30.540Z,13.83
2023-05-04T22:16:57.032Z,13.94
2023-05-04T22:19:23.458Z,13.94
2023-05-04T22:21:49.912Z,13.91
2023-05-04T22:24:16.472Z,14.03
2023-05-04T22:26:43.272Z,13.93
2023-05-04T22:29:09.668Z,13.82
2023-05-04T22:31:36.037Z,13.80
2023-05-04T22:34:02.417Z,13.85
2023-05-04T22:36:28.809Z,13.81
2023-05-04T22:38:55.203Z,13.70
2023-05-04T22:41:21.611Z,13.69
2023-05-04T22:43:48.056Z,13.66
2023-05-04T22:46:16.512Z,13.74
2023-05-04T22:48:48.902Z,13.66
2023-05-04T22:51:15.380Z,13.63
2023-05-04T22:53:42.012Z,13.54
2023-05-04T22:56:08.842Z,13.65
2023-05-04T22:58:35.606Z,13.69
2023-05-04T23:01:02.724Z,13.69
2023-05-04T23:03:29.236Z,13.41
2023-05-04T23:05:58.893Z,13.62
2023-05-04T23:08:26.286Z,13.60
2023-05-04T23:10:52.872Z,13.70
2023-05-04T23:13:19.315Z,13.60
2023-05-04T23:15:45.955Z,13.61
2023-05-04T23:18:12.374Z,13.53
2023-05-04T23:20:38.788Z,13.50
2023-05-04T23:23:05.200Z,13.53
2023-05-04T23:25:31.638Z,13.52
2023-05-04T23:27:58.158Z,13.60
2023-05-04T23:30:24.575Z,13.54
2023-05-04T23:32:51.027Z,13.50
2023-05-04T23:35:17.421Z,13.54
2023-05-04T23:37:43.872Z,13.54
2023-05-04T23:40:10.571Z,13.44
2023-05-04T23:42:37.462Z,13.43
2023-05-04T23:45:04.879Z,13.53
2023-05-04T23:47:31.317Z,13.44
2023-05-04T23:49:57.707Z,13.42
2023-05-04T23:52:24.068Z,13.32
2023-05-04T23:54:54.112Z,13.39
2023-05-04T23:57:20.520Z,13.27
2023-05-04T23:59:46.915Z,13.26
